createdAt,value
2022-11-23T00:00:13.451Z,5.98
2022-11-23T00:02:46.548Z,6.00
2022-11-23T00:05:19.011Z,6.09
2022-11-23T00:07:51.710Z,6.09
2022-11-23T00:10:24.222Z,6.04
2022-11-23T00:12:56.667Z,5.90
2022-11-23T00:15:31.836Z,5.85
2022-11-23T00:18:05.018Z,5.90
2022-11-23T00:20:39.303Z,5.94
2022-11-23T00:23:11.913Z,5.91
2022-11-23T00:25:45.471Z,5.93
2022-11-23T00:28:17.919Z,5.91
2022-11-23T00:30:51.521Z,5.95
2022-11-23T00:33:24.681Z,5.93
2022-11-23T00:36:00.222Z,5.94
2022-11-23T00:38:33.014Z,6.00
2022-11-23T00:41:08.069Z,5.87
2022-11-23T00:43:41.008Z,5.85
2022-11-23T00:46:15.615Z,5.92
2022-11-23T00:48:50.404Z,5.81
2022-11-23T00:51:24.516Z,5.87
2022-11-23T00:53:57.813Z,5.86
2022-11-23T00:56:32.471Z,5.75
2022-11-23T00:59:05.228Z,5.81
2022-11-23T01:01:38.664Z,5.84
2022-11-23T01:04:11.725Z,5.88
2022-11-23T01:06:44.238Z,5.92
2022-11-23T01:09:18.554Z,6.02
2022-11-23T01:11:51.608Z,6.03
2022-11-23T01:14:24.465Z,5.70
2022-11-23T01:16:56.859Z,5.60
2022-11-23T01:19:30.410Z,5.69
2022-11-23T01:22:02.898Z,5.67
2022-11-23T01:24:35.273Z,5.67
2022-11-23T01:27:07.640Z,5.58
2022-11-23T01:29:39.974Z,5.44
2022-11-23T01:32:12.363Z,5.57
2022-11-23T01:34:45.374Z,5.67
2022-11-23T01:37:17.715Z,5.64
2022-11-23T01:39:50.207Z,5.64
2022-11-23T01:42:22.616Z,5.56
2022-11-23T01:45:35.199Z,5.69
2022-11-23T01:48:14.633Z,5.78
2022-11-23T01:50:51.391Z,5.75
2022-11-23T01:53:27.628Z,5.85
2022-11-23T01:56:02.349Z,5.95
2022-11-23T01:58:39.696Z,5.83
2022-11-23T02:01:12.827Z,5.80
2022-11-23T02:03:48.093Z,5.93
2022-11-23T02:06:22.849Z,5.62
2022-11-23T02:08:56.016Z,5.75
2022-11-23T02:11:28.725Z,5.87
2022-11-23T02:14:01.415Z,5.93
2022-11-23T02:16:37.270Z,5.87
2022-11-23T02:19:22.022Z,5.91
2022-11-23T02:21:55.958Z,5.99
2022-11-23T02:24:34.633Z,5.71
2022-11-23T02:27:07.745Z,5.78
2022-11-23T02:29:40.388Z,5.75
2022-11-23T02:32:17.709Z,5.66
2022-11-23T02:34:51.665Z,5.70
2022-11-23T02:37:25.451Z,5.69
2022-11-23T02:39:59.471Z,5.80
2022-11-23T02:42:33.168Z,5.81
2022-11-23T02:45:15.690Z,5.88
2022-11-23T02:47:48.577Z,5.85
2022-11-23T02:50:20.954Z,5.93
2022-11-23T02:52:53.285Z,5.90
2022-11-23T02:55:25.653Z,5.93
2022-11-23T02:57:58.879Z,5.97
2022-11-23T03:00:32.235Z,5.99
2022-11-23T03:03:05.544Z,5.97
2022-11-23T03:05:38.631Z,5.87
2022-11-23T03:08:11.619Z,5.72
2022-11-23T03:10:45.344Z,5.81
2022-11-23T03:13:18.387Z,5.73
2022-11-23T03:15:55.457Z,5.71
2022-11-23T03:18:28.039Z,5.59
2022-11-23T03:21:02.576Z,5.45
2022-11-23T03:23:35.552Z,5.48
2022-11-23T03:26:13.037Z,5.35
2022-11-23T03:28:56.201Z,5.42
2022-11-23T03:31:32.547Z,5.49
2022-11-23T03:34:05.742Z,5.55
2022-11-23T03:36:40.152Z,5.43
2022-11-23T03:39:12.502Z,5.24
2022-11-23T03:42:13.880Z,5.41
2022-11-23T03:44:46.877Z,5.33
2022-11-23T03:47:20.442Z,5.41
2022-11-23T03:49:52.799Z,5.41
2022-11-23T03:52:25.249Z,5.42
2022-11-23T03:54:57.750Z,5.67
2022-11-23T03:57:30.181Z,5.80
2022-11-23T04:00:04.860Z,5.95
2022-11-23T04:02:45.863Z,6.21
2022-11-23T04:05:38.117Z,6.41
2022-11-23T04:08:32.053Z,6.53
2022-11-23T04:11:05.256Z,6.65
2022-11-23T04:13:43.269Z,6.78
2022-11-23T04:16:16.380Z,6.80
2022-11-23T04:18:48.766Z,6.88
2022-11-23T04:21:22.022Z,6.91
2022-11-23T04:23:54.511Z,6.99
2022-11-23T04:26:26.917Z,6.99
2022-11-23T04:28:59.851Z,7.06
2022-11-23T04:31:33.275Z,7.00
2022-11-23T04:34:20.322Z,7.05
2022-11-23T04:36:54.835Z,7.10
2022-11-23T04:39:33.616Z,7.08
2022-11-23T04:42:35.592Z,7.00
2022-11-23T04:45:08.749Z,7.11
2022-11-23T04:47:42.305Z,7.12
2022-11-23T04:50:18.883Z,7.23
2022-11-23T04:52:56.421Z,7.19
2022-11-23T04:55:35.833Z,7.27
2022-11-23T04:58:08.204Z,7.14
2022-11-23T05:00:40.834Z,7.08
2022-11-23T05:03:15.320Z,7.16
2022-11-23T05:05:48.749Z,7.24
2022-11-23T05:08:21.176Z,7.24
2022-11-23T05:11:13.442Z,7.21
2022-11-23T05:13:46.063Z,7.26
2022-11-23T05:16:18.542Z,7.23
2022-11-23T05:18:51.557Z,7.20
2022-11-23T05:21:24.264Z,7.25
2022-11-23T05:23:57.386Z,7.34
2022-11-23T05:26:29.799Z,7.30
2022-11-23T05:29:02.180Z,7.29
2022-11-23T05:31:34.682Z,7.26
2022-11-23T05:34:07.813Z,7.25
2022-11-23T05:36:49.154Z,7.29
2022-11-23T05:39:22.535Z,7.28
2022-11-23T05:41:57.487Z,7.27
2022-11-23T05:44:50.100Z,7.36
2022-11-23T05:47:30.516Z,7.28
2022-11-23T05:50:04.190Z,7.29
2022-11-23T05:52:37.475Z,7.36
2022-11-23T05:55:09.898Z,7.41
2022-11-23T05:57:42.749Z,7.48
2022-11-23T06:00:16.198Z,7.43
2022-11-23T06:03:00.709Z,7.41
2022-11-23T06:05:34.521Z,7.52
2022-11-23T06:08:06.999Z,7.50
2022-11-23T06:10:39.415Z,7.63
2022-11-23T06:13:12.040Z,7.57
2022-11-23T06:15:44.430Z,7.75
2022-11-23T06:18:17.874Z,7.87
2022-11-23T06:20:54.987Z,7.97
2022-11-23T06:23:28.489Z,7.94
2022-11-23T06:26:03.118Z,7.77
2022-11-23T06:28:38.236Z,7.59
2022-11-23T06:31:17.273Z,6.97
2022-11-23T06:33:51.741Z,6.50
2022-11-23T06:36:24.816Z,6.28
2022-11-23T06:38:57.770Z,6.49
2022-11-23T06:41:32.647Z,6.29
2022-11-23T06:44:07.028Z,6.44
2022-11-23T06:46:45.084Z,6.29
2022-11-23T06:49:19.801Z,6.40
2022-11-23T06:52:01.677Z,6.63
2022-11-23T06:54:34.364Z,6.67
2022-11-23T06:57:07.720Z,6.90
2022-11-23T06:59:44.574Z,7.20
2022-11-23T07:02:19.225Z,7.28
2022-11-23T07:04:52.181Z,7.29
2022-11-23T07:07:26.574Z,7.23
2022-11-23T07:10:08.454Z,7.06
2022-11-23T07:12:52.211Z,7.43
2022-11-23T07:15:26.746Z,7.63
2022-11-23T07:17:59.311Z,7.81
2022-11-23T07:20:31.831Z,7.92
2022-11-23T07:23:06.722Z,8.06
2022-11-23T07:25:39.225Z,8.16
2022-11-23T07:28:13.320Z,8.26
2022-11-23T07:30:45.810Z,8.23
2022-11-23T07:33:20.574Z,8.32
2022-11-23T07:35:54.084Z,8.33
2022-11-23T07:38:27.460Z,8.35
2022-11-23T07:41:01.037Z,8.43
2022-11-23T07:44:06.201Z,8.30
2022-11-23T07:46:38.714Z,8.33
2022-11-23T07:49:11.154Z,8.36
2022-11-23T07:51:43.512Z,8.50
2022-11-23T07:54:22.171Z,8.48
2022-11-23T07:56:56.001Z,8.50
2022-11-23T07:59:28.921Z,8.56
2022-11-23T08:02:01.454Z,8.56
2022-11-23T08:04:34.218Z,8.66
2022-11-23T08:07:06.980Z,8.67
2022-11-23T08:09:40.450Z,8.59
2022-11-23T08:12:12.863Z,8.70
2022-11-23T08:14:45.231Z,8.72
2022-11-23T08:17:17.809Z,8.69
2022-11-23T08:19:50.177Z,8.79
2022-11-23T08:22:22.661Z,8.79
2022-11-23T08:24:55.891Z,8.85
2022-11-23T08:27:28.204Z,8.83
2022-11-23T08:30:00.601Z,9.01
2022-11-23T08:32:33.027Z,9.07
2022-11-23T08:35:06.411Z,9.12
2022-11-23T08:37:38.842Z,9.15
2022-11-23T08:40:13.526Z,9.32
2022-11-23T08:42:46.425Z,9.37
2022-11-23T08:45:18.861Z,9.43
2022-11-23T08:47:52.314Z,9.53
2022-11-23T08:50:24.784Z,9.65
2022-11-23T08:52:58.008Z,9.61
2022-11-23T08:55:31.084Z,9.65
2022-11-23T08:58:03.441Z,9.80
2022-11-23T09:00:36.158Z,9.99
2022-11-23T09:03:08.550Z,10.01
2022-11-23T09:05:40.940Z,10.07
2022-11-23T09:08:14.528Z,9.98
2022-11-23T09:10:47.714Z,10.13
2022-11-23T09:13:20.152Z,10.29
2022-11-23T09:15:56.447Z,10.50
2022-11-23T09:18:29.831Z,10.56
2022-11-23T09:21:03.784Z,10.69
2022-11-23T09:23:36.493Z,10.61
2022-11-23T09:26:10.054Z,10.83
2022-11-23T09:28:44.905Z,10.85
2022-11-23T09:31:17.516Z,10.94
2022-11-23T09:33:52.606Z,11.01
2022-11-23T09:36:25.594Z,11.01
2022-11-23T09:38:58.149Z,10.94
2022-11-23T09:41:51.215Z,11.11
2022-11-23T09:44:35.153Z,11.35
2022-11-23T09:47:27.917Z,11.45
2022-11-23T09:50:08.445Z,11.61
2022-11-23T09:52:45.153Z,11.73
2022-11-23T09:55:24.731Z,11.85
2022-11-23T09:58:01.247Z,11.97
2022-11-23T10:00:38.461Z,11.91
2022-11-23T10:03:15.454Z,11.69
2022-11-23T10:06:01.679Z,11.53
2022-11-23T10:08:45.172Z,11.79
2022-11-23T10:11:35.183Z,11.51
2022-11-23T10:14:23.358Z,11.62
2022-11-23T10:17:05.047Z,12.04
2022-11-23T10:19:57.220Z,12.05
2022-11-23T10:22:37.424Z,12.21
2022-11-23T10:25:15.640Z,12.11
2022-11-23T10:27:50.609Z,12.15
2022-11-23T10:30:23.682Z,12.47
2022-11-23T10:33:02.537Z,12.37
2022-11-23T10:35:37.564Z,12.80
2022-11-23T10:38:18.125Z,12.84
2022-11-23T10:41:00.922Z,12.95
2022-11-23T10:43:41.349Z,13.09
2022-11-23T10:46:27.220Z,13.18
2022-11-23T10:49:16.080Z,12.69
2022-11-23T10:51:55.894Z,12.68
2022-11-23T10:54:32.454Z,12.71
2022-11-23T10:57:25.830Z,12.56
2022-11-23T11:00:00.426Z,12.69
2022-11-23T11:02:40.540Z,12.54
2022-11-23T11:05:40.180Z,12.60
2022-11-23T11:08:18.279Z,12.99
2022-11-23T11:10:58.410Z,12.71
2022-11-23T11:13:32.720Z,12.41
2022-11-23T11:16:06.854Z,11.91
2022-11-23T11:18:39.883Z,11.93
2022-11-23T11:21:19.745Z,11.94
2022-11-23T11:23:54.100Z,12.03
2022-11-23T11:26:29.605Z,12.29
2022-11-23T11:29:04.470Z,12.63
2022-11-23T11:31:51.245Z,12.83
2022-11-23T11:34:30.138Z,12.83
2022-11-23T11:37:11.853Z,12.85
2022-11-23T11:39:49.735Z,12.78
2022-11-23T11:42:33.294Z,12.31
2022-11-23T11:45:15.489Z,12.51
2022-11-23T11:47:53.718Z,12.48
2022-11-23T11:50:32.170Z,12.77
2022-11-23T11:53:11.712Z,13.02
2022-11-23T11:55:51.750Z,13.14
2022-11-23T11:58:25.597Z,13.11
2022-11-23T12:01:08.595Z,12.67
2022-11-23T12:03:46.966Z,12.59
2022-11-23T12:06:26.906Z,12.36
2022-11-23T12:09:03.467Z,12.30
2022-11-23T12:11:36.646Z,12.01
2022-11-23T12:14:12.872Z,11.93
2022-11-23T12:17:16.834Z,12.13
2022-11-23T12:19:56.668Z,12.46
2022-11-23T12:22:44.001Z,12.54
2022-11-23T12:25:24.424Z,12.37
2022-11-23T12:28:05.917Z,12.12
2022-11-23T12:30:48.436Z,11.92
2022-11-23T12:33:54.974Z,11.74
2022-11-23T12:36:52.233Z,11.45
2022-11-23T12:39:44.937Z,11.64
2022-11-23T12:42:23.591Z,11.49
2022-11-23T12:45:35.027Z,11.55
2022-11-23T12:48:40.435Z,11.43
2022-11-23T12:51:23.307Z,11.35
2022-11-23T12:54:10.465Z,11.32
2022-11-23T12:57:00.033Z,10.95
2022-11-23T12:59:44.040Z,10.99
2022-11-23T13:02:55.758Z,10.97
2022-11-23T13:06:04.132Z,11.19
2022-11-23T13:08:59.334Z,11.34
2022-11-23T13:11:47.644Z,11.40
2022-11-23T13:14:27.592Z,11.27
2022-11-23T13:17:15.249Z,11.18
2022-11-23T13:20:01.187Z,11.24
2022-11-23T13:22:34.753Z,11.08
2022-11-23T13:25:23.462Z,10.96
2022-11-23T13:28:03.590Z,10.95
2022-11-23T13:31:07.317Z,10.97
2022-11-23T13:33:37.697Z,11.05
2022-11-23T13:36:16.876Z,11.20
2022-11-23T13:38:52.160Z,11.04
2022-11-23T13:41:59.845Z,10.86
2022-11-23T13:44:33.388Z,10.76
2022-11-23T13:47:18.750Z,10.70
2022-11-23T13:49:52.452Z,10.76
2022-11-23T13:52:30.513Z,10.79
2022-11-23T13:55:17.268Z,10.75
2022-11-23T13:58:22.613Z,10.61
2022-11-23T14:00:57.019Z,10.62
2022-11-23T14:03:51.535Z,10.61
2022-11-23T14:06:41.726Z,10.58
2022-11-23T14:09:21.959Z,10.42
2022-11-23T14:12:02.317Z,10.45
2022-11-23T14:14:46.921Z,10.41
2022-11-23T14:17:52.931Z,10.23
2022-11-23T14:20:35.900Z,10.24
2022-11-23T14:24:01.716Z,10.19
2022-11-23T14:26:41.383Z,10.23
2022-11-23T14:29:27.785Z,10.18
2022-11-23T14:32:31.665Z,10.19
2022-11-23T14:35:22.545Z,10.04
2022-11-23T14:38:30.305Z,9.98
2022-11-23T14:41:07.844Z,10.00
2022-11-23T14:43:42.498Z,9.96
2022-11-23T14:46:18.384Z,10.00
2022-11-23T14:48:52.278Z,9.90
2022-11-23T14:51:26.218Z,9.90
2022-11-23T14:54:01.374Z,9.86
2022-11-23T14:56:36.787Z,9.80
2022-11-23T14:59:17.904Z,9.64
2022-11-23T15:01:52.931Z,9.76
2022-11-23T15:04:33.388Z,9.66
2022-11-23T15:07:12.999Z,9.65
2022-11-23T15:09:51.426Z,9.61
2022-11-23T15:12:25.820Z,9.50
2022-11-23T15:14:58.387Z,9.46
2022-11-23T15:17:31.001Z,9.49
2022-11-23T15:20:04.156Z,9.46
2022-11-23T15:22:37.064Z,9.54
2022-11-23T15:25:15.567Z,9.48
2022-11-23T15:27:48.507Z,9.48
2022-11-23T15:30:27.101Z,9.46
2022-11-23T15:33:03.101Z,9.43
2022-11-23T15:35:37.603Z,9.41
2022-11-23T15:38:14.942Z,9.36
2022-11-23T15:40:50.905Z,9.36
2022-11-23T15:43:23.334Z,9.33
2022-11-23T15:46:03.821Z,9.29
2022-11-23T15:48:36.440Z,9.30
2022-11-23T15:51:24.421Z,9.27
2022-11-23T15:53:59.725Z,9.27
2022-11-23T15:56:35.698Z,9.25
2022-11-23T15:59:28.121Z,9.26
2022-11-23T16:02:02.497Z,9.19
2022-11-23T16:04:38.755Z,9.21
2022-11-23T16:07:20.221Z,9.24
2022-11-23T16:10:11.995Z,9.14
2022-11-23T16:12:49.602Z,9.14
2022-11-23T16:15:40.768Z,9.03
2022-11-23T16:18:21.806Z,9.07
2022-11-23T16:20:57.872Z,9.09
2022-11-23T16:23:42.459Z,9.06
2022-11-23T16:26:15.747Z,8.99
2022-11-23T16:28:50.999Z,9.03
2022-11-23T16:31:28.311Z,8.98
2022-11-23T16:34:00.758Z,8.99
2022-11-23T16:36:33.142Z,9.02
2022-11-23T16:39:06.019Z,8.98
2022-11-23T16:41:38.625Z,8.98
2022-11-23T16:44:11.651Z,9.03
2022-11-23T16:46:46.029Z,8.97
2022-11-23T16:49:19.886Z,8.98
2022-11-23T16:51:57.065Z,8.96
2022-11-23T16:54:29.919Z,8.95
2022-11-23T16:57:03.959Z,9.07
2022-11-23T16:59:36.972Z,8.85
2022-11-23T17:02:14.093Z,8.87
2022-11-23T17:04:46.839Z,8.90
2022-11-23T17:07:19.323Z,8.88
2022-11-23T17:09:51.831Z,8.94
2022-11-23T17:12:24.266Z,8.86
2022-11-23T17:14:59.321Z,8.84
2022-11-23T17:17:31.899Z,8.73
2022-11-23T17:20:05.039Z,8.76
2022-11-23T17:22:37.524Z,8.73
2022-11-23T17:25:14.966Z,8.67
2022-11-23T17:27:47.915Z,8.71
2022-11-23T17:30:21.900Z,8.63
2022-11-23T17:32:54.496Z,8.67
2022-11-23T17:35:27.220Z,8.51
2022-11-23T17:37:59.647Z,8.50
2022-11-23T17:40:32.094Z,8.51
2022-11-23T17:43:04.464Z,8.52
2022-11-23T17:45:37.979Z,8.61
2022-11-23T17:48:12.298Z,8.59
2022-11-23T17:50:46.887Z,8.58
2022-11-23T17:53:24.112Z,8.48
2022-11-23T17:55:57.786Z,8.40
2022-11-23T17:58:30.170Z,8.53
2022-11-23T18:01:03.612Z,8.50
2022-11-23T18:03:36.133Z,8.55
2022-11-23T18:06:12.709Z,8.62
2022-11-23T18:08:46.513Z,8.71
2022-11-23T18:11:19.897Z,8.69
2022-11-23T18:13:52.748Z,8.76
2022-11-23T18:16:25.813Z,8.68
2022-11-23T18:18:58.320Z,8.79
2022-11-23T18:21:30.669Z,8.79
2022-11-23T18:24:04.928Z,8.87
2022-11-23T18:26:37.430Z,8.77
2022-11-23T18:29:15.561Z,8.85
2022-11-23T18:31:49.997Z,8.76
2022-11-23T18:34:22.535Z,8.85
2022-11-23T18:36:54.901Z,8.94
2022-11-23T18:39:27.337Z,8.92
2022-11-23T18:42:05.298Z,8.75
2022-11-23T18:44:38.250Z,8.86
2022-11-23T18:47:11.219Z,8.94
2022-11-23T18:49:43.577Z,8.98
2022-11-23T18:52:16.489Z,8.94
2022-11-23T18:54:48.862Z,8.91
2022-11-23T18:57:21.304Z,8.77
2022-11-23T18:59:58.251Z,8.77
2022-11-23T19:02:31.818Z,8.69
2022-11-23T19:05:04.689Z,8.67
2022-11-23T19:07:37.517Z,8.49
2022-11-23T19:10:10.244Z,8.55
2022-11-23T19:12:43.241Z,8.53
2022-11-23T19:15:15.655Z,8.58
2022-11-23T19:17:48.667Z,8.55
2022-11-23T19:20:22.874Z,8.61
2022-11-23T19:22:55.600Z,8.59
2022-11-23T19:25:29.035Z,8.53
2022-11-23T19:28:01.388Z,8.41
2022-11-23T19:30:33.864Z,8.37
2022-11-23T19:33:06.897Z,8.37
2022-11-23T19:35:39.275Z,8.27
2022-11-23T19:38:11.653Z,8.37
2022-11-23T19:40:44.069Z,8.47
2022-11-23T19:43:16.413Z,8.35
2022-11-23T19:45:53.450Z,8.25
2022-11-23T19:48:26.963Z,8.19
2022-11-23T19:51:01.678Z,8.20
2022-11-23T19:53:35.823Z,8.35
2022-11-23T19:56:11.927Z,8.22
2022-11-23T19:58:44.420Z,8.13
2022-11-23T20:01:19.837Z,8.28
2022-11-23T20:03:54.723Z,8.27
2022-11-23T20:06:28.588Z,8.35
2022-11-23T20:09:03.095Z,8.46
2022-11-23T20:11:37.744Z,8.26
2022-11-23T20:14:11.232Z,8.18
2022-11-23T20:16:43.713Z,8.14
2022-11-23T20:19:16.838Z,8.09
2022-11-23T20:21:49.307Z,8.20
2022-11-23T20:24:21.644Z,8.12
2022-11-23T20:26:54.045Z,8.14
2022-11-23T20:29:27.209Z,8.08
2022-11-23T20:31:59.759Z,8.12
2022-11-23T20:34:32.991Z,8.10
2022-11-23T20:37:05.750Z,8.11
2022-11-23T20:39:38.075Z,8.16
2022-11-23T20:42:10.434Z,8.17
2022-11-23T20:44:42.785Z,8.27
2022-11-23T20:47:15.166Z,8.24
2022-11-23T20:49:48.205Z,8.17
2022-11-23T20:52:20.674Z,8.15
2022-11-23T20:54:53.092Z,8.22
2022-11-23T20:57:25.606Z,8.31
2022-11-23T20:59:58.125Z,8.25
2022-11-23T21:02:30.525Z,8.28
2022-11-23T21:05:04.153Z,8.20
2022-11-23T21:07:36.687Z,8.24
2022-11-23T21:10:09.478Z,8.35
2022-11-23T21:12:59.697Z,8.36
2022-11-23T21:15:32.070Z,8.40
2022-11-23T21:18:04.459Z,8.48
2022-11-23T21:20:37.566Z,8.36
2022-11-23T21:23:10.158Z,8.42
2022-11-23T21:25:42.544Z,8.35
2022-11-23T21:28:15.038Z,8.43
2022-11-23T21:30:47.391Z,8.29
2022-11-23T21:33:19.748Z,8.34
2022-11-23T21:35:52.727Z,8.20
2022-11-23T21:38:30.494Z,8.23
2022-11-23T21:43:50.726Z,8.16
2022-11-23T21:46:23.843Z,8.21
2022-11-23T21:48:58.096Z,8.17
2022-11-23T21:51:31.567Z,8.14
2022-11-23T21:54:05.820Z,8.19
2022-11-23T21:56:38.218Z,8.10
2022-11-23T21:59:10.915Z,8.11
2022-11-23T22:01:43.270Z,8.16
2022-11-23T22:04:16.321Z,8.12
2022-11-23T22:06:49.308Z,8.04
2022-11-23T22:09:21.633Z,8.13
2022-11-23T22:11:53.966Z,8.03
2022-11-23T22:14:26.363Z,8.10
2022-11-23T22:16:59.861Z,8.17
2022-11-23T22:19:32.222Z,7.99
2022-11-23T22:22:06.653Z,8.03
2022-11-23T22:24:39.399Z,7.95
2022-11-23T22:27:11.736Z,8.09
2022-11-23T22:29:44.101Z,8.08
2022-11-23T22:32:16.419Z,8.01
2022-11-23T22:34:49.114Z,8.05
2022-11-23T22:37:22.094Z,8.00
2022-11-23T22:39:54.485Z,7.97
2022-11-23T22:42:26.854Z,7.95
2022-11-23T22:44:59.178Z,8.06
2022-11-23T22:47:32.400Z,7.90
2022-11-23T22:50:05.915Z,8.00
2022-11-23T22:52:38.898Z,7.96
2022-11-23T22:55:11.257Z,7.83
2022-11-23T22:57:43.645Z,7.93
2022-11-23T23:00:16.125Z,8.01
2022-11-23T23:02:48.609Z,8.01
2022-11-23T23:05:21.110Z,7.86
2022-11-23T23:07:55.104Z,7.83
2022-11-23T23:10:28.922Z,7.87
2022-11-23T23:13:01.410Z,7.93
2022-11-23T23:15:33.755Z,7.87
2022-11-23T23:18:06.514Z,8.03
2022-11-23T23:20:38.893Z,7.98
2022-11-23T23:23:11.914Z,8.01
2022-11-23T23:25:44.445Z,8.03
2022-11-23T23:28:16.753Z,8.06
2022-11-23T23:30:49.134Z,8.10
2022-11-23T23:33:21.459Z,8.06
2022-11-23T23:35:53.830Z,8.02
2022-11-23T23:38:26.879Z,7.98
2022-11-23T23:40:59.434Z,7.91
2022-11-23T23:43:32.159Z,7.87
2022-11-23T23:46:06.717Z,7.86
2022-11-23T23:48:40.304Z,7.87
2022-11-23T23:51:17.810Z,7.84
2022-11-23T23:53:52.050Z,7.80
2022-11-23T23:56:26.180Z,7.76
2022-11-23T23:58:59.477Z,7.75
